Aviation Digital Data Service (ADDS)

Output produced by TAFs form (1134 UTC 02 September 2014)
found at http://aviationweather.gov/adds/tafs/
 
KMTJ 021120Z 0212/0312 16008KT P6SM SKC 
     FM022000 34009KT P6SM SKC 
     FM030600 14010KT P6SM SKC